Ring-n-wet — WDE9775 — position and weather

sailwx.info

Track history (hours):
 
Tides and Currents Weather Stations Pressure Air Temp Water Temp Dewpoint Dewpoint Depression Visibility Wind Speed Wind Dir Waves Ship Positions

Ring-n-wet

Owner: Ring, Carl D, Memphis, TN. More information available from US FCC via Universal Licensing System and Coast Guard Vessel Documentation Center.

Last reported at 2017-Aug-19 20:30 UTC. Time now 2017-Sep-22 09:58 UTC.
Position N 25°47' W 080°09'.
Warning: this ship's position is 33 days out of date.

Length 17 m.

Type: Pleasure craft. MMSI: 367421150.

Date/timePositionNaut miles runAvg speedWind from/ knotsBaromVisibWave heightAir tempDewpointWater temp
2017-Aug-19 20:30N 25°47' W 080°09'2 3.1
2017-Aug-19 19:58N 25°46' W 080°08'4 8.9
2017-Aug-19 19:28N 25°50' W 080°06'5 9.3
2017-Aug-19 18:58N 25°54' W 080°08'0 0.0
2017-Aug-19 01:00N 25°55' W 080°08'1 2.7
2017-Aug-19 00:30N 25°56' W 080°08'  
2017-Aug-13 18:43N 25°59' W 080°07'0 2.2
2017-Aug-13 18:30N 25°58' W 080°07'4 7.9
2017-Aug-13 18:00N 25°54' W 080°08'0 0.0
2017-Aug-12 16:39N 25°55' W 080°08'1 4.7
2017-Aug-12 16:28N 25°54' W 080°08'4 8.3
2017-Aug-12 16:00N 25°50' W 080°06'3 6.8
2017-Aug-12 15:30N 25°54' W 080°07'4 6.8
2017-Aug-12 14:59N 25°57' W 080°08'  
Track history (hours):
 
Tides and Currents Weather Stations Pressure Air Temp Water Temp Dewpoint Dewpoint Depression Visibility Wind Speed Wind Dir Waves Ship Positions

Ring-n-wet

Owner: Ring, Carl D, Memphis, TN. More information available from US FCC via Universal Licensing System and Coast Guard Vessel Documentation Center.

Last reported at 2017-Aug-19 20:30 UTC. Time now 2017-Sep-22 09:58 UTC.
Position N 25°47' W 080°09'.
Warning: this ship's position is 33 days out of date.

Length 17 m.

Type: Pleasure craft. MMSI: 367421150.

Date/timePositionNaut miles runAvg speedWind from/ knotsBaromVisibWave heightAir tempDewpointWater temp
2017-Aug-19 20:30N 25°47' W 080°09'2 3.1
2017-Aug-19 19:58N 25°46' W 080°08'4 8.9
2017-Aug-19 19:28N 25°50' W 080°06'5 9.3
2017-Aug-19 18:58N 25°54' W 080°08'0 0.0
2017-Aug-19 01:00N 25°55' W 080°08'1 2.7
2017-Aug-19 00:30N 25°56' W 080°08'  
2017-Aug-13 18:43N 25°59' W 080°07'0 2.2
2017-Aug-13 18:30N 25°58' W 080°07'4 7.9
2017-Aug-13 18:00N 25°54' W 080°08'0 0.0
2017-Aug-12 16:39N 25°55' W 080°08'1 4.7
2017-Aug-12 16:28N 25°54' W 080°08'4 8.3
2017-Aug-12 16:00N 25°50' W 080°06'3 6.8
2017-Aug-12 15:30N 25°54' W 080°07'4 6.8
2017-Aug-12 14:59N 25°57' W 080°08'  

Dump ship's entire track history